sensor_id;sensor_type;location;lat;lon;timestamp;pressure;altitude;pressure_sealevel;temperature;humidity
1371;BME280;14306;49.942;11.570;2022-11-12T00:00:23;99259.31;;;7.98;93.67
1371;BME280;14306;49.942;11.570;2022-11-12T00:02:48;99256.16;;;7.90;92.69
1371;BME280;14306;49.942;11.570;2022-11-12T00:05:14;99265.72;;;7.97;92.95
1371;BME280;14306;49.942;11.570;2022-11-12T00:07:40;99256.97;;;8.18;92.26
1371;BME280;14306;49.942;11.570;2022-11-12T00:10:05;99252.50;;;8.24;91.74
1371;BME280;14306;49.942;11.570;2022-11-12T00:12:31;99253.00;;;7.93;92.05
1371;BME280;14306;49.942;11.570;2022-11-12T00:14:56;99248.25;;;7.32;95.12
1371;BME280;14306;49.942;11.570;2022-11-12T00:17:22;99243.34;;;7.69;94.75
1371;BME280;14306;49.942;11.570;2022-11-12T00:19:47;99250.25;;;7.76;93.45
1371;BME280;14306;49.942;11.570;2022-11-12T00:22:13;99240.31;;;7.65;94.27
1371;BME280;14306;49.942;11.570;2022-11-12T00:24:38;99248.25;;;7.72;93.90
1371;BME280;14306;49.942;11.570;2022-11-12T00:27:04;99241.44;;;7.81;93.83
1371;BME280;14306;49.942;11.570;2022-11-12T00:29:29;99240.69;;;7.85;93.12
1371;BME280;14306;49.942;11.570;2022-11-12T00:31:54;99232.56;;;7.97;93.17
1371;BME280;14306;49.942;11.570;2022-11-12T00:34:20;99235.69;;;7.77;93.33
1371;BME280;14306;49.942;11.570;2022-11-12T00:36:45;99239.66;;;7.86;93.04
1371;BME280;14306;49.942;11.570;2022-11-12T00:39:11;99236.50;;;7.78;93.36
1371;BME280;14306;49.942;11.570;2022-11-12T00:41:36;99238.13;;;7.51;92.77
1371;BME280;14306;49.942;11.570;2022-11-12T00:44:01;99232.97;;;7.49;94.22
1371;BME280;14306;49.942;11.570;2022-11-12T00:46:27;99239.53;;;7.42;94.40
1371;BME280;14306;49.942;11.570;2022-11-12T00:48:52;99227.38;;;7.39;94.02
1371;BME280;14306;49.942;11.570;2022-11-12T00:51:18;99228.28;;;7.45;94.78
1371;BME280;14306;49.942;11.570;2022-11-12T00:53:46;99219.56;;;7.26;94.82
1371;BME280;14306;49.942;11.570;2022-11-12T00:56:13;99224.13;;;7.37;94.81
1371;BME280;14306;49.942;11.570;2022-11-12T00:58:38;99219.03;;;7.52;94.61
1371;BME280;14306;49.942;11.570;2022-11-12T01:01:09;99220.97;;;7.68;93.56
1371;BME280;14306;49.942;11.570;2022-11-12T01:03:36;99222.88;;;7.56;93.65
1371;BME280;14306;49.942;11.570;2022-11-12T01:06:07;99228.59;;;7.60;93.45
1371;BME280;14306;49.942;11.570;2022-11-12T01:08:33;99230.81;;;7.63;94.05
1371;BME280;14306;49.942;11.570;2022-11-12T01:13:31;99232.72;;;7.90;91.89
1371;BME280;14306;49.942;11.570;2022-11-12T01:15:56;99218.94;;;7.75;91.89
1371;BME280;14306;49.942;11.570;2022-11-12T01:18:22;99223.41;;;7.98;91.55
1371;BME280;14306;49.942;11.570;2022-11-12T01:20:47;99210.34;;;7.78;91.96
1371;BME280;14306;49.942;11.570;2022-11-12T01:23:13;99198.41;;;7.74;91.49
1371;BME280;14306;49.942;11.570;2022-11-12T01:25:38;99208.63;;;7.72;91.53
1371;BME280;14306;49.942;11.570;2022-11-12T01:28:03;99209.63;;;7.83;91.21
1371;BME280;14306;49.942;11.570;2022-11-12T01:30:29;99208.03;;;7.70;91.57
1371;BME280;14306;49.942;11.570;2022-11-12T01:32:55;99205.81;;;7.95;91.13
1371;BME280;14306;49.942;11.570;2022-11-12T01:35:21;99204.19;;;7.94;91.32
1371;BME280;14306;49.942;11.570;2022-11-12T01:37:46;99193.41;;;7.94;90.36
1371;BME280;14306;49.942;11.570;2022-11-12T01:40:11;99201.38;;;8.18;90.46
1371;BME280;14306;49.942;11.570;2022-11-12T01:42:38;99205.94;;;8.17;89.88
1371;BME280;14306;49.942;11.570;2022-11-12T01:45:12;99202.53;;;8.22;89.44
1371;BME280;14306;49.942;11.570;2022-11-12T01:47:41;99197.66;;;8.07;90.56
1371;BME280;14306;49.942;11.570;2022-11-12T01:50:22;99198.22;;;7.92;90.52
1371;BME280;14306;49.942;11.570;2022-11-12T01:52:59;99204.19;;;7.94;89.84
1371;BME280;14306;49.942;11.570;2022-11-12T01:55:28;99202.41;;;8.00;89.62
1371;BME280;14306;49.942;11.570;2022-11-12T01:58:08;99205.75;;;8.07;89.51
1371;BME280;14306;49.942;11.570;2022-11-12T02:00:35;99209.19;;;8.02;89.28
1371;BME280;14306;49.942;11.570;2022-11-12T02:03:03;99204.06;;;8.18;89.33
1371;BME280;14306;49.942;11.570;2022-11-12T02:05:30;99200.84;;;8.04;89.24
1371;BME280;14306;49.942;11.570;2022-11-12T02:07:58;99203.69;;;7.97;89.43
1371;BME280;14306;49.942;11.570;2022-11-12T02:10:24;99211.81;;;8.14;88.85
1371;BME280;14306;49.942;11.570;2022-11-12T02:12:51;99209.47;;;7.89;89.11
1371;BME280;14306;49.942;11.570;2022-11-12T02:15:36;99207.91;;;7.77;89.86
1371;BME280;14306;49.942;11.570;2022-11-12T02:18:09;99209.34;;;7.68;90.29
1371;BME280;14306;49.942;11.570;2022-11-12T02:20:36;99209.06;;;7.81;90.16
1371;BME280;14306;49.942;11.570;2022-11-12T02:23:03;99205.72;;;7.34;91.30
1371;BME280;14306;49.942;11.570;2022-11-12T02:25:29;99207.94;;;7.37;91.29
1371;BME280;14306;49.942;11.570;2022-11-12T02:27:55;99211.44;;;7.38;91.52
1371;BME280;14306;49.942;11.570;2022-11-12T02:30:36;99211.06;;;7.46;91.19
1371;BME280;14306;49.942;11.570;2022-11-12T02:33:02;99201.41;;;7.33;91.88
1371;BME280;14306;49.942;11.570;2022-11-12T02:35:28;99205.56;;;7.41;92.07
1371;BME280;14306;49.942;11.570;2022-11-12T02:37:54;99207.28;;;7.58;90.70
1371;BME280;14306;49.942;11.570;2022-11-12T02:40:20;99207.88;;;7.60;90.27
1371;BME280;14306;49.942;11.570;2022-11-12T02:42:45;99206.50;;;7.74;90.47
1371;BME280;14306;49.942;11.570;2022-11-12T02:45:11;99200.19;;;7.41;91.38
1371;BME280;14306;49.942;11.570;2022-11-12T02:47:36;99202.72;;;7.59;91.02
1371;BME280;14306;49.942;11.570;2022-11-12T02:50:03;99194.22;;;7.67;90.51
1371;BME280;14306;49.942;11.570;2022-11-12T02:52:28;99203.50;;;7.31;91.37
1371;BME280;14306;49.942;11.570;2022-11-12T02:54:54;99200.09;;;7.64;90.39
1371;BME280;14306;49.942;11.570;2022-11-12T02:57:19;99202.69;;;7.87;90.34
1371;BME280;14306;49.942;11.570;2022-11-12T02:59:45;99197.09;;;7.49;90.97
1371;BME280;14306;49.942;11.570;2022-11-12T03:02:10;99185.69;;;7.58;91.35
1371;BME280;14306;49.942;11.570;2022-11-12T03:04:36;99195.53;;;7.64;91.25
1371;BME280;14306;49.942;11.570;2022-11-12T03:07:01;99198.09;;;7.43;92.07
1371;BME280;14306;49.942;11.570;2022-11-12T03:09:26;99196.59;;;7.63;91.03
1371;BME280;14306;49.942;11.570;2022-11-12T03:11:52;99196.06;;;7.78;90.53
1371;BME280;14306;49.942;11.570;2022-11-12T03:14:17;99193.75;;;7.70;90.92
1371;BME280;14306;49.942;11.570;2022-11-12T03:16:43;99193.44;;;7.83;90.11
1371;BME280;14306;49.942;11.570;2022-11-12T03:19:08;99196.91;;;7.95;89.46
1371;BME280;14306;49.942;11.570;2022-11-12T03:21:33;99198.13;;;7.87;89.17
1371;BME280;14306;49.942;11.570;2022-11-12T03:24:00;99193.09;;;7.51;90.28
1371;BME280;14306;49.942;11.570;2022-11-12T03:26:25;99189.22;;;7.59;90.95
1371;BME280;14306;49.942;11.570;2022-11-12T03:28:51;99186.84;;;7.62;90.38
1371;BME280;14306;49.942;11.570;2022-11-12T03:31:16;99191.88;;;7.42;90.80
1371;BME280;14306;49.942;11.570;2022-11-12T03:33:42;99193.38;;;7.50;91.40
1371;BME280;14306;49.942;11.570;2022-11-12T03:36:07;99177.72;;;7.63;90.86
1371;BME280;14306;49.942;11.570;2022-11-12T03:38:33;99180.19;;;7.81;89.45
1371;BME280;14306;49.942;11.570;2022-11-12T03:40:58;99184.13;;;7.74;89.73
1371;BME280;14306;49.942;11.570;2022-11-12T03:43:24;99183.41;;;7.50;90.29
1371;BME280;14306;49.942;11.570;2022-11-12T03:45:49;99180.34;;;7.75;89.44
1371;BME280;14306;49.942;11.570;2022-11-12T03:48:14;99183.44;;;7.67;90.08
1371;BME280;14306;49.942;11.570;2022-11-12T03:50:40;99180.69;;;7.50;89.63
1371;BME280;14306;49.942;11.570;2022-11-12T03:53:06;99182.28;;;7.63;88.87
1371;BME280;14306;49.942;11.570;2022-11-12T03:55:32;99181.28;;;7.52;90.15
1371;BME280;14306;49.942;11.570;2022-11-12T03:57:57;99177.63;;;7.58;88.87
1371;BME280;14306;49.942;11.570;2022-11-12T04:00:25;99181.75;;;7.49;90.11
1371;BME280;14306;49.942;11.570;2022-11-12T04:02:50;99182.63;;;7.38;90.20
1371;BME280;14306;49.942;11.570;2022-11-12T04:05:17;99176.84;;;7.46;89.98
1371;BME280;14306;49.942;11.570;2022-11-12T04:08:02;99178.31;;;7.26;90.75
1371;BME280;14306;49.942;11.570;2022-11-12T04:10:47;99170.34;;;7.31;90.20
1371;BME280;14306;49.942;11.570;2022-11-12T04:13:12;99173.75;;;7.26;90.67
1371;BME280;14306;49.942;11.570;2022-11-12T04:18:40;99179.66;;;7.12;91.29
1371;BME280;14306;49.942;11.570;2022-11-12T04:21:29;99179.31;;;7.08;90.89
1371;BME280;14306;49.942;11.570;2022-11-12T04:24:13;99192.25;;;7.34;90.62
1371;BME280;14306;49.942;11.570;2022-11-12T04:26:59;99191.41;;;7.34;90.57
1371;BME280;14306;49.942;11.570;2022-11-12T04:29:24;99196.72;;;7.29;90.39
1371;BME280;14306;49.942;11.570;2022-11-12T04:32:08;99199.13;;;6.91;91.51
1371;BME280;14306;49.942;11.570;2022-11-12T04:34:33;99202.91;;;6.67;93.18
1371;BME280;14306;49.942;11.570;2022-11-12T04:37:02;99201.94;;;6.73;92.85
1371;BME280;14306;49.942;11.570;2022-11-12T04:39:27;99189.38;;;7.01;92.32
1371;BME280;14306;49.942;11.570;2022-11-12T04:41:53;99191.84;;;7.03;90.78
1371;BME280;14306;49.942;11.570;2022-11-12T04:44:36;99202.75;;;6.96;91.30
1371;BME280;14306;49.942;11.570;2022-11-12T04:47:39;99214.72;;;6.66;92.69
1371;BME280;14306;49.942;11.570;2022-11-12T04:50:23;99208.50;;;6.65;93.52
1371;BME280;14306;49.942;11.570;2022-11-12T04:52:48;99212.72;;;6.38;93.47
1371;BME280;14306;49.942;11.570;2022-11-12T04:55:13;99210.59;;;6.29;93.99
1371;BME280;14306;49.942;11.570;2022-11-12T04:57:39;99200.31;;;6.60;93.15
1371;BME280;14306;49.942;11.570;2022-11-12T05:00:04;99195.63;;;6.44;92.95
1371;BME280;14306;49.942;11.570;2022-11-12T05:02:30;99194.44;;;6.40;93.62
1371;BME280;14306;49.942;11.570;2022-11-12T05:04:55;99197.16;;;6.52;92.77
1371;BME280;14306;49.942;11.570;2022-11-12T05:07:21;99197.97;;;6.64;92.43
1371;BME280;14306;49.942;11.570;2022-11-12T05:09:46;99197.16;;;6.63;92.80
1371;BME280;14306;49.942;11.570;2022-11-12T05:12:12;99196.22;;;6.69;92.26
1371;BME280;14306;49.942;11.570;2022-11-12T05:14:38;99201.13;;;6.72;92.18
1371;BME280;14306;49.942;11.570;2022-11-12T05:17:04;99207.69;;;6.53;93.04
1371;BME280;14306;49.942;11.570;2022-11-12T05:19:29;99194.09;;;6.48;93.74
1371;BME280;14306;49.942;11.570;2022-11-12T05:21:54;99191.19;;;6.50;93.81
1371;BME280;14306;49.942;11.570;2022-11-12T05:24:40;99195.16;;;6.70;93.93
1371;BME280;14306;49.942;11.570;2022-11-12T05:27:17;99200.53;;;6.70;93.00
1371;BME280;14306;49.942;11.570;2022-11-12T05:29:43;99196.31;;;6.74;92.21
1371;BME280;14306;49.942;11.570;2022-11-12T05:32:11;99196.09;;;6.53;92.10
1371;BME280;14306;49.942;11.570;2022-11-12T05:34:37;99196.09;;;6.76;91.96
1371;BME280;14306;49.942;11.570;2022-11-12T05:37:03;99203.03;;;6.60;91.64
1371;BME280;14306;49.942;11.570;2022-11-12T05:39:29;99200.78;;;6.57;91.31
1371;BME280;14306;49.942;11.570;2022-11-12T05:41:54;99210.75;;;6.68;91.63
1371;BME280;14306;49.942;11.570;2022-11-12T05:44:20;99212.25;;;6.64;90.82
1371;BME280;14306;49.942;11.570;2022-11-12T05:46:46;99212.63;;;6.56;90.64
1371;BME280;14306;49.942;11.570;2022-11-12T05:49:12;99205.88;;;6.13;92.60
1371;BME280;14306;49.942;11.570;2022-11-12T05:51:37;99207.38;;;5.97;93.28
1371;BME280;14306;49.942;11.570;2022-11-12T05:54:03;99214.28;;;6.05;93.83
1371;BME280;14306;49.942;11.570;2022-11-12T05:56:28;99208.97;;;6.28;92.52
1371;BME280;14306;49.942;11.570;2022-11-12T05:58:54;99196.56;;;6.50;91.45
1371;BME280;14306;49.942;11.570;2022-11-12T06:01:20;99203.47;;;6.46;91.75
1371;BME280;14306;49.942;11.570;2022-11-12T06:03:45;99203.22;;;6.47;91.78
1371;BME280;14306;49.942;11.570;2022-11-12T06:06:11;99216.22;;;6.62;91.72
1371;BME280;14306;49.942;11.570;2022-11-12T06:08:37;99209.22;;;6.49;91.65
1371;BME280;14306;49.942;11.570;2022-11-12T06:11:02;99219.41;;;6.59;90.95
1371;BME280;14306;49.942;11.570;2022-11-12T06:13:27;99223.50;;;6.61;91.20
1371;BME280;14306;49.942;11.570;2022-11-12T06:15:53;99222.78;;;6.43;91.92
1371;BME280;14306;49.942;11.570;2022-11-12T06:18:19;99226.03;;;6.33;91.87
1371;BME280;14306;49.942;11.570;2022-11-12T06:20:45;99228.63;;;6.40;92.52
1371;BME280;14306;49.942;11.570;2022-11-12T06:23:30;99239.38;;;6.51;91.83
1371;BME280;14306;49.942;11.570;2022-11-12T06:25:55;99229.34;;;6.58;91.20
1371;BME280;14306;49.942;11.570;2022-11-12T06:28:21;99228.84;;;6.38;91.37
1371;BME280;14306;49.942;11.570;2022-11-12T06:30:46;99234.00;;;6.51;91.22
1371;BME280;14306;49.942;11.570;2022-11-12T06:33:11;99237.31;;;6.76;90.71
1371;BME280;14306;49.942;11.570;2022-11-12T06:35:36;99241.38;;;6.67;90.77
1371;BME280;14306;49.942;11.570;2022-11-12T06:38:02;99237.19;;;6.83;90.42
1371;BME280;14306;49.942;11.570;2022-11-12T06:40:27;99244.78;;;6.40;91.32
1371;BME280;14306;49.942;11.570;2022-11-12T06:42:56;99251.91;;;6.46;92.34
1371;BME280;14306;49.942;11.570;2022-11-12T06:45:22;99249.00;;;6.59;91.39
1371;BME280;14306;49.942;11.570;2022-11-12T06:47:47;99260.09;;;6.39;91.99
1371;BME280;14306;49.942;11.570;2022-11-12T06:50:13;99258.09;;;6.46;92.26
1371;BME280;14306;49.942;11.570;2022-11-12T06:52:38;99248.03;;;6.30;92.34
1371;BME280;14306;49.942;11.570;2022-11-12T06:55:04;99242.47;;;6.78;90.54
1371;BME280;14306;49.942;11.570;2022-11-12T06:57:29;99247.25;;;6.76;90.83
1371;BME280;14306;49.942;11.570;2022-11-12T06:59:55;99253.22;;;6.66;91.20
1371;BME280;14306;49.942;11.570;2022-11-12T07:02:20;99250.19;;;6.86;90.55
1371;BME280;14306;49.942;11.570;2022-11-12T07:04:46;99254.53;;;6.98;90.26
1371;BME280;14306;49.942;11.570;2022-11-12T07:07:11;99249.13;;;6.98;90.65
1371;BME280;14306;49.942;11.570;2022-11-12T07:09:36;99249.41;;;7.36;88.87
1371;BME280;14306;49.942;11.570;2022-11-12T07:12:02;99246.31;;;6.93;90.28
1371;BME280;14306;49.942;11.570;2022-11-12T07:14:27;99246.53;;;6.57;91.03
1371;BME280;14306;49.942;11.570;2022-11-12T07:16:53;99246.53;;;6.92;90.94
1371;BME280;14306;49.942;11.570;2022-11-12T07:19:18;99261.16;;;6.96;89.90
1371;BME280;14306;49.942;11.570;2022-11-12T07:21:43;99256.13;;;6.53;89.90
1371;BME280;14306;49.942;11.570;2022-11-12T07:24:09;99258.59;;;6.55;90.73
1371;BME280;14306;49.942;11.570;2022-11-12T07:26:34;99252.50;;;6.48;90.70
1371;BME280;14306;49.942;11.570;2022-11-12T07:29:00;99249.66;;;6.31;91.01
1371;BME280;14306;49.942;11.570;2022-11-12T07:31:25;99244.44;;;6.07;90.59
1371;BME280;14306;49.942;11.570;2022-11-12T07:33:50;99251.75;;;6.29;91.36
1371;BME280;14306;49.942;11.570;2022-11-12T07:36:18;99250.94;;;6.40;90.48
1371;BME280;14306;49.942;11.570;2022-11-12T07:38:44;99245.72;;;6.91;89.13
1371;BME280;14306;49.942;11.570;2022-11-12T07:43:38;99255.44;;;7.15;88.91
1371;BME280;14306;49.942;11.570;2022-11-12T07:46:07;99252.97;;;7.25;88.61
1371;BME280;14306;49.942;11.570;2022-11-12T07:48:33;99249.44;;;7.25;87.48
1371;BME280;14306;49.942;11.570;2022-11-12T07:51:10;99249.13;;;6.98;88.52
1371;BME280;14306;49.942;11.570;2022-11-12T07:53:36;99249.34;;;7.08;86.52
1371;BME280;14306;49.942;11.570;2022-11-12T07:56:03;99248.53;;;6.50;88.57
1371;BME280;14306;49.942;11.570;2022-11-12T07:58:33;99243.97;;;6.51;89.34
1371;BME280;14306;49.942;11.570;2022-11-12T08:01:11;99242.41;;;6.32;89.21
1371;BME280;14306;49.942;11.570;2022-11-12T08:03:42;99247.22;;;6.41;89.30
1371;BME280;14306;49.942;11.570;2022-11-12T08:06:07;99245.44;;;6.35;89.49
1371;BME280;14306;49.942;11.570;2022-11-12T08:08:33;99243.50;;;6.65;89.02
1371;BME280;14306;49.942;11.570;2022-11-12T08:10:58;99239.75;;;6.89;87.23
1371;BME280;14306;49.942;11.570;2022-11-12T08:13:24;99243.03;;;6.80;87.38
1371;BME280;14306;49.942;11.570;2022-11-12T08:15:50;99232.94;;;7.10;86.47
1371;BME280;14306;49.942;11.570;2022-11-12T08:18:16;99223.03;;;7.50;85.04
1371;BME280;14306;49.942;11.570;2022-11-12T08:20:41;99242.81;;;8.11;84.13
1371;BME280;14306;49.942;11.570;2022-11-12T08:23:07;99243.38;;;8.42;82.79
1371;BME280;14306;49.942;11.570;2022-11-12T08:25:34;99233.31;;;8.70;79.96
1371;BME280;14306;49.942;11.570;2022-11-12T08:28:00;99237.78;;;8.81;81.00
1371;BME280;14306;49.942;11.570;2022-11-12T08:30:26;99236.16;;;8.80;81.22
1371;BME280;14306;49.942;11.570;2022-11-12T08:32:59;99241.47;;;9.30;78.97
1371;BME280;14306;49.942;11.570;2022-11-12T08:35:26;99238.75;;;9.51;78.45
1371;BME280;14306;49.942;11.570;2022-11-12T08:37:59;99243.00;;;9.90;75.79
1371;BME280;14306;49.942;11.570;2022-11-12T08:40:27;99234.06;;;9.04;78.80
1371;BME280;14306;49.942;11.570;2022-11-12T08:43:00;99245.81;;;9.52;77.19
1371;BME280;14306;49.942;11.570;2022-11-12T08:45:26;99249.66;;;10.04;76.99
1371;BME280;14306;49.942;11.570;2022-11-12T08:47:52;99249.69;;;10.62;73.83
1371;BME280;14306;49.942;11.570;2022-11-12T08:50:22;99258.03;;;10.87;75.68
1371;BME280;14306;49.942;11.570;2022-11-12T08:52:48;99253.16;;;10.89;74.35
1371;BME280;14306;49.942;11.570;2022-11-12T08:55:13;99250.06;;;10.76;73.89
1371;BME280;14306;49.942;11.570;2022-11-12T08:57:40;99256.03;;;10.41;73.49
1371;BME280;14306;49.942;11.570;2022-11-12T09:00:08;99245.63;;;9.59;77.21
1371;BME280;14306;49.942;11.570;2022-11-12T09:02:33;99237.41;;;9.97;76.24
1371;BME280;14306;49.942;11.570;2022-11-12T09:04:59;99252.63;;;10.56;74.00
1371;BME280;14306;49.942;11.570;2022-11-12T09:07:24;99241.97;;;9.91;75.73
1371;BME280;14306;49.942;11.570;2022-11-12T09:09:49;99244.09;;;9.25;77.58
1371;BME280;14306;49.942;11.570;2022-11-12T09:12:14;99240.72;;;9.77;75.94
1371;BME280;14306;49.942;11.570;2022-11-12T09:14:44;99240.78;;;9.01;78.53
1371;BME280;14306;49.942;11.570;2022-11-12T09:17:09;99237.38;;;9.70;78.59
1371;BME280;14306;49.942;11.570;2022-11-12T09:19:35;99238.97;;;9.45;78.27
1371;BME280;14306;49.942;11.570;2022-11-12T09:22:00;99231.47;;;9.09;78.87
1371;BME280;14306;49.942;11.570;2022-11-12T09:24:25;99237.25;;;9.60;76.11
1371;BME280;14306;49.942;11.570;2022-11-12T09:26:52;99229.81;;;9.29;77.65
1371;BME280;14306;49.942;11.570;2022-11-12T09:29:17;99232.34;;;9.79;76.30
1371;BME280;14306;49.942;11.570;2022-11-12T09:31:43;99233.03;;;8.88;79.52
1371;BME280;14306;49.942;11.570;2022-11-12T09:34:08;99229.19;;;8.84;78.74
1371;BME280;14306;49.942;11.570;2022-11-12T09:36:33;99232.66;;;9.18;79.34
1371;BME280;14306;49.942;11.570;2022-11-12T09:38:59;99227.94;;;8.92;78.95
1371;BME280;14306;49.942;11.570;2022-11-12T09:41:28;99234.72;;;9.11;78.96
1371;BME280;14306;49.942;11.570;2022-11-12T09:44:05;99236.94;;;9.35;78.77
1371;BME280;14306;49.942;11.570;2022-11-12T09:46:52;99221.53;;;9.36;78.06
1371;BME280;14306;49.942;11.570;2022-11-12T09:51:54;99214.81;;;9.60;77.33
1371;BME280;14306;49.942;11.570;2022-11-12T09:54:26;99212.72;;;9.93;76.25
1371;BME280;14306;49.942;11.570;2022-11-12T09:56:52;99211.16;;;9.97;76.70
1371;BME280;14306;49.942;11.570;2022-11-12T09:59:19;99221.28;;;10.07;76.29
1371;BME280;14306;49.942;11.570;2022-11-12T10:04:48;99214.53;;;10.36;74.76
1371;BME280;14306;49.942;11.570;2022-11-12T10:10:23;99212.31;;;10.28;75.52
1371;BME280;14306;49.942;11.570;2022-11-12T10:13:23;99202.66;;;10.78;74.25
1371;BME280;14306;49.942;11.570;2022-11-12T10:22:18;99206.94;;;11.11;73.26
1371;BME280;14306;49.942;11.570;2022-11-12T10:24:47;99199.59;;;11.06;73.91
1371;BME280;14306;49.942;11.570;2022-11-12T10:27:25;99204.91;;;11.38;72.10
1371;BME280;14306;49.942;11.570;2022-11-12T10:30:01;99204.31;;;11.82;70.52
1371;BME280;14306;49.942;11.570;2022-11-12T10:32:27;99201.91;;;12.06;69.92
1371;BME280;14306;49.942;11.570;2022-11-12T10:34:52;99201.56;;;11.77;70.86
1371;BME280;14306;49.942;11.570;2022-11-12T10:37:26;99189.34;;;11.75;70.00
1371;BME280;14306;49.942;11.570;2022-11-12T10:39:53;99187.50;;;11.96;70.64
1371;BME280;14306;49.942;11.570;2022-11-12T10:42:21;99170.59;;;11.68;nan
1371;BME280;14306;49.942;11.570;2022-11-12T10:44:47;99180.97;;;11.92;71.41
1371;BME280;14306;49.942;11.570;2022-11-12T10:52:33;99176.13;;;12.54;68.18
1371;BME280;14306;49.942;11.570;2022-11-12T10:55:20;99174.78;;;12.46;68.39
1371;BME280;14306;49.942;11.570;2022-11-12T10:58:02;99174.22;;;12.54;68.56
1371;BME280;14306;49.942;11.570;2022-11-12T11:00:28;99164.44;;;12.48;68.86
1371;BME280;14306;49.942;11.570;2022-11-12T11:02:54;99155.72;;;12.56;68.59
1371;BME280;14306;49.942;11.570;2022-11-12T11:05:33;99165.53;;;12.42;69.22
1371;BME280;14306;49.942;11.570;2022-11-12T11:08:00;99168.78;;;12.29;70.05
1371;BME280;14306;49.942;11.570;2022-11-12T11:10:27;99160.66;;;12.39;70.22
1371;BME280;14306;49.942;11.570;2022-11-12T11:13:20;99154.38;;;12.59;70.07
1371;BME280;14306;49.942;11.570;2022-11-12T11:16:03;99159.84;;;12.44;70.42
1371;BME280;14306;49.942;11.570;2022-11-12T11:18:31;99155.72;;;12.56;70.26
1371;BME280;14306;49.942;11.570;2022-11-12T11:23:41;99139.94;;;12.68;69.81
1371;BME280;14306;49.942;11.570;2022-11-12T11:29:17;99134.47;;;12.88;69.55
1371;BME280;14306;49.942;11.570;2022-11-12T11:39:25;99136.88;;;13.15;68.80
1371;BME280;14306;49.942;11.570;2022-11-12T11:44:54;99128.16;;;13.18;68.92
1371;BME280;14306;49.942;11.570;2022-11-12T11:47:43;99128.72;;;13.15;69.28
1371;BME280;14306;49.942;11.570;2022-11-12T11:50:33;99125.19;;;13.14;69.44
1371;BME280;14306;49.942;11.570;2022-11-12T11:56:21;99121.38;;;13.15;68.99
1371;BME280;14306;49.942;11.570;2022-11-12T12:01:59;99112.47;;;13.53;68.25
1371;BME280;14306;49.942;11.570;2022-11-12T12:04:37;99107.53;;;13.60;68.72
1371;BME280;14306;49.942;11.570;2022-11-12T12:07:36;99103.69;;;13.66;68.42
1371;BME280;14306;49.942;11.570;2022-11-12T12:18:10;99103.16;;;13.64;67.71
1371;BME280;14306;49.942;11.570;2022-11-12T12:20:48;99108.16;;;13.91;67.36
1371;BME280;14306;49.942;11.570;2022-11-12T12:24:01;99102.03;;;14.04;67.37
1371;BME280;14306;49.942;11.570;2022-11-12T12:26:59;99103.56;;;14.25;65.98
1371;BME280;14306;49.942;11.570;2022-11-12T12:29:11;99099.34;;;14.37;66.08
1371;BME280;14306;49.942;11.570;2022-11-12T12:31:43;99088.25;;;14.57;65.03
1371;BME280;14306;49.942;11.570;2022-11-12T12:34:37;99088.66;;;14.69;64.21
1371;BME280;14306;49.942;11.570;2022-11-12T12:40:02;99083.56;;;14.34;65.34
1371;BME280;14306;49.942;11.570;2022-11-12T12:42:36;99082.41;;;14.40;64.98
1371;BME280;14306;49.942;11.570;2022-11-12T12:45:30;99084.69;;;14.57;64.96
1371;BME280;14306;49.942;11.570;2022-11-12T12:47:59;99074.34;;;14.30;65.06
1371;BME280;14306;49.942;11.570;2022-11-12T12:50:26;99073.56;;;14.53;65.48
1371;BME280;14306;49.942;11.570;2022-11-12T12:55:47;99069.56;;;14.69;64.68
1371;BME280;14306;49.942;11.570;2022-11-12T12:58:29;99064.84;;;14.51;65.89
1371;BME280;14306;49.942;11.570;2022-11-12T13:06:13;99069.09;;;14.39;66.23
1371;BME280;14306;49.942;11.570;2022-11-12T13:08:39;99056.53;;;14.38;66.48
1371;BME280;14306;49.942;11.570;2022-11-12T13:11:05;99064.41;;;14.44;66.46
1371;BME280;14306;49.942;11.570;2022-11-12T13:13:35;99061.22;;;14.32;66.53
1371;BME280;14306;49.942;11.570;2022-11-12T13:16:01;99062.66;;;14.53;66.08
1371;BME280;14306;49.942;11.570;2022-11-12T13:21:16;99050.31;;;14.32;66.90
1371;BME280;14306;49.942;11.570;2022-11-12T13:32:29;99048.47;;;14.28;68.11
1371;BME280;14306;49.942;11.570;2022-11-12T13:40:49;99038.66;;;14.27;68.25
1371;BME280;14306;49.942;11.570;2022-11-12T13:51:12;99044.19;;;14.17;69.87
1371;BME280;14306;49.942;11.570;2022-11-12T13:53:39;99039.41;;;14.32;69.43
1371;BME280;14306;49.942;11.570;2022-11-12T13:56:04;99032.16;;;14.23;69.75
1371;BME280;14306;49.942;11.570;2022-11-12T13:58:32;99035.88;;;13.98;70.83
1371;BME280;14306;49.942;11.570;2022-11-12T14:01:18;99042.28;;;13.84;71.74
1371;BME280;14306;49.942;11.570;2022-11-12T14:03:47;99033.81;;;13.85;71.64
1371;BME280;14306;49.942;11.570;2022-11-12T14:17:56;99029.22;;;13.47;73.61
1371;BME280;14306;49.942;11.570;2022-11-12T14:20:31;99022.59;;;13.15;75.09
1371;BME280;14306;49.942;11.570;2022-11-12T14:23:10;99014.22;;;13.06;75.55
1371;BME280;14306;49.942;11.570;2022-11-12T14:25:44;99021.31;;;13.02;75.58
1371;BME280;14306;49.942;11.570;2022-11-12T14:28:23;99015.88;;;13.02;75.82
1371;BME280;14306;49.942;11.570;2022-11-12T14:30:49;99012.06;;;12.93;75.60
1371;BME280;14306;49.942;11.570;2022-11-12T14:33:19;99014.97;;;12.48;77.04
1371;BME280;14306;49.942;11.570;2022-11-12T14:35:46;99017.78;;;12.08;78.93
1371;BME280;14306;49.942;11.570;2022-11-12T14:38:32;99013.59;;;12.56;76.72
1371;BME280;14306;49.942;11.570;2022-11-12T14:41:09;99019.88;;;12.41;76.81
1371;BME280;14306;49.942;11.570;2022-11-12T14:43:46;99002.19;;;12.49;77.69
1371;BME280;14306;49.942;11.570;2022-11-12T14:48:59;99004.94;;;12.44;77.87
1371;BME280;14306;49.942;11.570;2022-11-12T14:51:26;99000.38;;;12.24;78.40
1371;BME280;14306;49.942;11.570;2022-11-12T14:54:06;99006.06;;;12.13;78.42
1371;BME280;14306;49.942;11.570;2022-11-12T14:56:37;99003.66;;;11.91;79.68
1371;BME280;14306;49.942;11.570;2022-11-12T14:59:04;99000.94;;;11.91;79.64
1371;BME280;14306;49.942;11.570;2022-11-12T15:01:33;98991.47;;;11.63;80.49
1371;BME280;14306;49.942;11.570;2022-11-12T15:04:16;98990.66;;;11.73;79.98
1371;BME280;14306;49.942;11.570;2022-11-12T15:06:50;98993.34;;;11.43;81.17